createdAt,value
2023-04-06T00:03:24.983Z,100907.50
2023-04-06T00:07:27.118Z,100897.47
2023-04-06T00:11:28.697Z,100902.56
2023-04-06T00:15:30.527Z,100910.38
2023-04-06T00:19:32.321Z,100906.88
2023-04-06T00:23:33.935Z,100903.19
2023-04-06T00:27:35.484Z,100900.44
2023-04-06T00:31:37.204Z,100892.72
2023-04-06T00:35:39.765Z,100893.41
2023-04-06T00:39:41.451Z,100888.94
2023-04-06T00:43:43.185Z,100883.84
2023-04-06T00:47:44.783Z,100888.25
2023-04-06T00:51:46.420Z,100875.53
2023-04-06T00:55:49.095Z,100883.91
2023-04-06T00:59:51.328Z,100872.50
2023-04-06T01:03:54.276Z,100869.66
2023-04-06T01:07:56.583Z,100864.41
2023-04-06T01:12:01.992Z,100866.06
2023-04-06T01:16:06.672Z,100864.41
2023-04-06T01:20:20.739Z,100863.53
2023-04-06T01:24:22.870Z,100858.47
2023-04-06T01:28:40.570Z,100861.00
2023-04-06T01:32:57.307Z,100850.84
2023-04-06T01:37:33.582Z,100851.53
2023-04-06T01:41:38.280Z,100849.19
2023-04-06T01:45:40.391Z,100845.84
2023-04-06T01:49:51.096Z,100849.19
2023-04-06T01:53:56.179Z,100843.13
2023-04-06T01:58:05.421Z,100845.47
2023-04-06T02:02:13.934Z,100841.84
2023-04-06T02:06:19.749Z,100844.88
2023-04-06T02:10:23.073Z,100843.03
2023-04-06T02:14:26.740Z,100849.44
2023-04-06T02:18:32.171Z,100847.28
2023-04-06T02:22:33.726Z,100855.25
2023-04-06T02:26:35.400Z,100854.84
2023-04-06T02:30:36.973Z,100851.13
2023-04-06T02:34:40.209Z,100842.34
2023-04-06T02:38:41.978Z,100846.47
2023-04-06T02:42:43.643Z,100836.09
2023-04-06T02:46:47.030Z,100835.22
2023-04-06T02:50:48.740Z,100831.91
2023-04-06T02:54:52.118Z,100836.19
2023-04-06T02:58:59.923Z,100830.94
2023-04-06T03:03:05.088Z,100835.22
2023-04-06T03:07:06.971Z,100833.47
2023-04-06T03:11:12.269Z,100835.81
2023-04-06T03:15:16.663Z,100827.34
2023-04-06T03:19:23.717Z,100833.06
2023-04-06T03:23:25.810Z,100836.28
2023-04-06T03:27:34.659Z,100832.63
2023-04-06T03:31:37.917Z,100839.38
2023-04-06T03:35:54.872Z,100841.72
2023-04-06T03:39:59.304Z,100841.63
2023-04-06T03:44:01.182Z,100850.66
2023-04-06T03:48:03.176Z,100847.16
2023-04-06T03:52:07.683Z,100848.50
2023-04-06T03:56:09.359Z,100859.41
2023-04-06T04:00:11.662Z,100864.38
2023-04-06T04:04:16.418Z,100862.53
2023-04-06T04:08:18.008Z,100869.25
2023-04-06T04:12:19.824Z,100866.19
2023-04-06T04:16:21.466Z,100863.13
2023-04-06T04:20:23.232Z,100872.19
2023-04-06T04:24:25.139Z,100872.06
2023-04-06T04:28:26.822Z,100870.19
2023-04-06T04:32:31.433Z,100876.16
2023-04-06T04:36:35.261Z,100872.84
2023-04-06T04:40:41.253Z,100876.25
2023-04-06T04:44:44.873Z,100869.13
2023-04-06T04:48:46.880Z,100874.56
2023-04-06T04:52:49.334Z,100878.41
2023-04-06T04:56:59.710Z,100875.69
2023-04-06T05:01:13.154Z,100883.94
2023-04-06T05:05:16.859Z,100879.41
2023-04-06T05:09:18.923Z,100882.75
2023-04-06T05:13:21.105Z,100886.81
2023-04-06T05:17:24.791Z,100886.16
2023-04-06T05:21:28.744Z,100887.81
2023-04-06T05:25:34.999Z,100893.31
2023-04-06T05:29:47.098Z,100893.09
2023-04-06T05:33:50.704Z,100898.91
2023-04-06T05:38:00.409Z,100893.09
2023-04-06T05:42:06.627Z,100896.59
2023-04-06T05:46:22.686Z,100902.56
2023-04-06T05:50:25.038Z,100899.59
2023-04-06T05:54:27.026Z,100902.84
2023-04-06T05:58:34.822Z,100906.56
2023-04-06T06:02:37.856Z,100900.09
2023-04-06T06:06:39.999Z,100896.09
2023-04-06T06:10:53.803Z,100894.56
2023-04-06T06:14:58.203Z,100903.47
2023-04-06T06:19:02.243Z,100898.34
2023-04-06T06:23:04.418Z,100903.84
2023-04-06T06:27:08.696Z,100902.50
2023-04-06T06:31:12.127Z,100904.88
2023-04-06T06:35:14.083Z,100906.53
2023-04-06T06:39:15.772Z,100899.59
2023-04-06T06:43:18.098Z,100895.81
2023-04-06T06:47:27.193Z,100905.41
2023-04-06T06:51:28.964Z,100904.16
2023-04-06T06:55:30.887Z,100913.63
2023-04-06T06:59:32.829Z,100903.69
2023-04-06T07:03:35.639Z,100895.97
2023-04-06T07:07:37.409Z,100890.13
2023-04-06T07:11:39.238Z,100898.81
2023-04-06T07:15:41.210Z,100901.50
2023-04-06T07:19:42.993Z,100894.19
2023-04-06T07:23:45.261Z,100902.22
2023-04-06T07:27:46.859Z,100906.72
2023-04-06T07:31:50.106Z,100904.81
2023-04-06T07:35:53.386Z,100907.25
2023-04-06T07:39:55.268Z,100904.72
2023-04-06T07:43:57.236Z,100907.28
2023-04-06T07:47:59.023Z,100910.38
2023-04-06T07:52:03.976Z,100906.22
2023-04-06T07:56:06.601Z,100903.16
2023-04-06T08:00:10.676Z,100897.59
2023-04-06T08:04:15.308Z,100898.03
2023-04-06T08:08:17.316Z,100899.75
2023-04-06T08:12:18.972Z,100904.50
2023-04-06T08:16:20.773Z,100900.09
2023-04-06T08:20:22.348Z,100898.31
2023-04-06T08:24:23.938Z,100893.56
2023-04-06T08:28:25.628Z,100888.66
2023-04-06T08:32:27.232Z,100899.66
2023-04-06T08:36:28.861Z,100908.06
2023-04-06T08:40:30.713Z,100891.59
2023-04-06T08:44:33.501Z,100889.81
2023-04-06T08:48:36.319Z,100887.34
2023-04-06T08:52:38.975Z,100882.91
2023-04-06T08:56:41.291Z,100874.41
2023-04-06T09:00:43.236Z,100874.13
2023-04-06T09:04:48.926Z,100874.81
2023-04-06T09:08:50.581Z,100873.22
2023-04-06T09:12:52.248Z,100877.72
2023-04-06T09:16:53.825Z,100875.19
2023-04-06T09:21:08.986Z,100863.13
2023-04-06T09:25:11.661Z,100860.31
2023-04-06T09:29:24.771Z,100865.16
2023-04-06T09:33:26.500Z,100864.16
2023-04-06T09:37:29.112Z,100861.47
2023-04-06T09:41:33.073Z,100858.78
2023-04-06T09:45:34.846Z,100853.59
2023-04-06T09:49:36.565Z,100844.94
2023-04-06T09:53:42.782Z,100844.84
2023-04-06T09:57:53.725Z,100839.56
2023-04-06T10:01:58.010Z,100847.22
2023-04-06T10:06:06.326Z,100834.31
2023-04-06T10:10:09.136Z,100835.16
2023-04-06T10:14:12.711Z,100828.88
2023-04-06T10:18:14.907Z,100827.53
2023-04-06T10:22:27.489Z,100823.94
2023-04-06T10:26:29.240Z,100831.25
2023-04-06T10:30:31.036Z,100820.75
2023-04-06T10:34:36.691Z,100819.91
2023-04-06T10:38:41.716Z,100825.13
2023-04-06T10:42:43.627Z,100814.13
2023-04-06T10:46:56.962Z,100819.16
2023-04-06T10:50:58.580Z,100811.78
2023-04-06T10:55:00.506Z,100813.78
2023-04-06T10:59:02.213Z,100813.53
2023-04-06T11:03:04.296Z,100797.19
2023-04-06T11:07:06.312Z,100782.94
2023-04-06T11:11:10.640Z,100779.88
2023-04-06T11:15:12.273Z,100775.53
2023-04-06T11:19:13.854Z,100774.72
2023-04-06T11:23:23.769Z,100767.03
2023-04-06T11:27:26.437Z,100758.13
2023-04-06T11:31:28.124Z,100757.22
2023-04-06T11:35:32.308Z,100750.66
2023-04-06T11:39:44.383Z,100748.94
2023-04-06T11:43:48.856Z,100745.50
2023-04-06T11:48:02.335Z,100728.88
2023-04-06T11:52:04.072Z,100732.75
2023-04-06T11:56:05.961Z,100733.78
2023-04-06T12:00:10.425Z,100724.28
2023-04-06T12:04:12.070Z,100713.06
2023-04-06T12:08:13.721Z,100700.38
2023-04-06T12:12:15.453Z,100709.94
2023-04-06T12:16:17.380Z,100706.38
2023-04-06T12:20:26.444Z,100708.88
2023-04-06T12:24:29.672Z,100710.66
2023-04-06T12:28:31.359Z,100696.34
2023-04-06T12:32:33.026Z,100700.19
2023-04-06T12:36:34.795Z,100695.03
2023-04-06T12:40:40.052Z,100685.13
2023-04-06T12:44:43.552Z,100690.00
2023-04-06T12:48:45.538Z,100692.63
2023-04-06T12:52:48.255Z,100682.97
2023-04-06T12:56:49.877Z,100677.66
2023-04-06T13:00:51.773Z,100668.53
2023-04-06T13:04:53.485Z,100663.63
2023-04-06T13:08:55.841Z,100665.53
2023-04-06T13:12:57.443Z,100651.84
2023-04-06T13:16:59.042Z,100665.50
2023-04-06T13:21:00.788Z,100653.28
2023-04-06T13:25:02.422Z,100662.81
2023-04-06T13:29:04.193Z,100656.84
2023-04-06T13:33:07.327Z,100650.81
2023-04-06T13:37:09.005Z,100645.84
2023-04-06T13:41:10.790Z,100649.41
2023-04-06T13:45:12.708Z,100649.44
2023-04-06T13:49:14.811Z,100643.38
2023-04-06T13:53:16.830Z,100636.44
2023-04-06T13:57:18.376Z,100639.03
2023-04-06T14:01:20.061Z,100637.41
2023-04-06T14:05:22.282Z,100640.06
2023-04-06T14:09:23.907Z,100639.16
2023-04-06T14:13:25.479Z,100632.19
2023-04-06T14:17:27.090Z,100638.06
2023-04-06T14:21:28.739Z,100633.91
2023-04-06T14:25:32.453Z,100632.19
2023-04-06T14:29:34.091Z,100627.06
2023-04-06T14:33:36.180Z,100623.81
2023-04-06T14:37:37.840Z,100620.50
2023-04-06T14:41:39.371Z,100602.44
2023-04-06T14:45:41.065Z,100622.25
2023-04-06T14:49:42.649Z,100618.78
2023-04-06T14:53:44.592Z,100607.59
2023-04-06T14:57:46.337Z,100604.25
2023-04-06T15:01:48.013Z,100596.50
2023-04-06T15:05:49.654Z,100598.34
2023-04-06T15:09:51.247Z,100596.63
2023-04-06T15:13:52.743Z,100605.16
2023-04-06T15:17:54.438Z,100603.19
2023-04-06T15:21:56.154Z,100604.81
2023-04-06T15:25:58.748Z,100594.53
2023-04-06T15:30:00.493Z,100599.47
2023-04-06T15:34:02.059Z,100606.16
2023-04-06T15:38:03.632Z,100599.13
2023-04-06T15:42:05.290Z,100603.28
2023-04-06T15:50:10.249Z,100607.44
2023-04-06T15:54:11.769Z,100601.25
2023-04-06T15:58:13.379Z,100624.22
2023-04-06T16:02:15.108Z,100610.94
2023-04-06T16:06:16.833Z,100620.22
2023-04-06T16:10:18.365Z,100611.59
2023-04-06T16:14:19.934Z,100622.78
2023-04-06T16:18:21.516Z,100614.88
2023-04-06T16:22:23.093Z,100612.91
2023-04-06T16:26:24.703Z,100612.69
2023-04-06T16:30:26.649Z,100625.31
2023-04-06T16:34:32.799Z,100623.91
2023-04-06T16:38:35.712Z,100627.63
2023-04-06T16:42:37.966Z,100641.09
2023-04-06T16:46:39.732Z,100638.28
2023-04-06T16:50:41.405Z,100626.09
2023-04-06T16:54:42.986Z,100632.22
2023-04-06T16:58:46.038Z,100630.47
2023-04-06T17:02:47.862Z,100634.16
2023-04-06T17:06:50.012Z,100639.22
2023-04-06T17:10:59.155Z,100631.38
2023-04-06T17:15:04.696Z,100634.88
2023-04-06T17:19:06.349Z,100644.84
2023-04-06T17:23:07.872Z,100644.75
2023-04-06T17:27:09.458Z,100647.16
2023-04-06T17:31:12.372Z,100649.63
2023-04-06T17:35:14.010Z,100649.63
2023-04-06T17:39:15.557Z,100651.72
2023-04-06T17:43:17.141Z,100654.91
2023-04-06T17:47:18.710Z,100659.09
2023-04-06T17:51:21.494Z,100671.72
2023-04-06T17:55:23.162Z,100669.84
2023-04-06T17:59:24.640Z,100677.28
2023-04-06T18:03:26.230Z,100690.72
2023-04-06T18:07:27.927Z,100699.03
2023-04-06T18:11:31.058Z,100709.72
2023-04-06T18:15:35.142Z,100710.00
2023-04-06T18:19:36.716Z,100713.69
2023-04-06T18:23:38.584Z,100725.84
2023-04-06T18:27:40.378Z,100727.50
2023-04-06T18:31:43.697Z,100733.69
2023-04-06T18:35:45.349Z,100742.50
2023-04-06T18:39:46.934Z,100737.81
2023-04-06T18:43:49.230Z,100748.00
2023-04-06T18:47:51.007Z,100751.06
2023-04-06T18:51:53.625Z,100753.97
2023-04-06T18:55:59.180Z,100751.06
2023-04-06T19:00:03.294Z,100756.22
2023-04-06T19:04:05.128Z,100757.81
2023-04-06T19:08:06.781Z,100763.56
2023-04-06T19:12:08.482Z,100766.16
2023-04-06T19:16:10.902Z,100764.66
2023-04-06T19:20:12.625Z,100762.97
2023-04-06T19:24:14.251Z,100774.34
2023-04-06T19:28:15.904Z,100775.31
2023-04-06T19:32:17.631Z,100779.59
2023-04-06T19:36:19.519Z,100764.22
2023-04-06T19:40:21.319Z,100771.91
2023-04-06T19:44:23.559Z,100763.38
2023-04-06T19:48:25.613Z,100768.47
2023-04-06T19:52:28.167Z,100767.34
2023-04-06T19:56:31.427Z,100770.66
2023-04-06T20:00:33.136Z,100762.97
2023-04-06T20:04:35.381Z,100767.94
2023-04-06T20:08:37.043Z,100767.84
2023-04-06T20:12:39.128Z,100769.47
2023-04-06T20:16:41.031Z,100768.41
2023-04-06T20:20:44.609Z,100769.16
2023-04-06T20:24:46.441Z,100756.31
2023-04-06T20:28:48.523Z,100755.25
2023-04-06T20:32:50.234Z,100756.00
2023-04-06T20:36:51.948Z,100755.88
2023-04-06T20:40:54.216Z,100753.97
2023-04-06T20:44:56.990Z,100753.06
2023-04-06T20:48:59.246Z,100748.66
2023-04-06T20:53:00.826Z,100742.56
2023-04-06T20:57:02.814Z,100744.84
2023-04-06T21:01:04.378Z,100735.22
2023-04-06T21:05:06.464Z,100725.69
2023-04-06T21:09:08.110Z,100727.06
2023-04-06T21:13:09.735Z,100730.84
2023-04-06T21:17:11.604Z,100720.38
2023-04-06T21:21:13.237Z,100714.22
2023-04-06T21:25:15.270Z,100711.53
2023-04-06T21:29:16.972Z,100711.28
2023-04-06T21:33:18.693Z,100703.50
2023-04-06T21:37:20.320Z,100698.25
2023-04-06T21:41:21.914Z,100698.81
2023-04-06T21:45:23.529Z,100684.69
2023-04-06T21:49:25.171Z,100686.25
2023-04-06T21:53:26.833Z,100688.00
2023-04-06T21:57:28.393Z,100678.47
2023-04-06T22:01:30.044Z,100679.28
2023-04-06T22:05:32.269Z,100674.75
2023-04-06T22:09:33.900Z,100668.53
2023-04-06T22:13:36.179Z,100665.59
2023-04-06T22:17:37.780Z,100662.91
2023-04-06T22:21:39.479Z,100674.75
2023-04-06T22:25:41.030Z,100661.97
2023-04-06T22:29:42.630Z,100662.00
2023-04-06T22:33:44.184Z,100657.06
2023-04-06T22:37:45.835Z,100650.13
2023-04-06T22:41:47.414Z,100659.31
2023-04-06T22:45:49.006Z,100651.66
2023-04-06T22:49:50.630Z,100657.66
2023-04-06T22:53:52.158Z,100649.06
2023-04-06T22:57:53.714Z,100647.34
2023-04-06T23:01:56.770Z,100632.13
2023-04-06T23:05:58.432Z,100643.19
2023-04-06T23:10:00.409Z,100632.84
2023-04-06T23:14:02.002Z,100629.38
2023-04-06T23:18:03.805Z,100629.66
2023-04-06T23:22:05.452Z,100632.97
2023-04-06T23:26:07.201Z,100626.06
2023-04-06T23:30:09.517Z,100623.16
2023-04-06T23:34:11.096Z,100622.06
2023-04-06T23:38:12.715Z,100619.34
2023-04-06T23:42:14.272Z,100612.09
2023-04-06T23:46:17.052Z,100611.78
2023-04-06T23:50:18.655Z,100601.38
2023-04-06T23:54:20.246Z,100601.91
2023-04-06T23:58:21.869Z,100599.41
